createdAt,value
2023-06-30T00:01:06.822Z,100617.63
2023-06-30T00:03:34.890Z,100614.44
2023-06-30T00:06:02.932Z,100611.38
2023-06-30T00:08:30.868Z,100611.34
2023-06-30T00:10:58.967Z,100612.13
2023-06-30T00:13:27.129Z,100607.13
2023-06-30T00:15:55.598Z,100607.38
2023-06-30T00:18:25.127Z,100616.06
2023-06-30T00:20:55.640Z,100612.06
2023-06-30T00:23:23.589Z,100615.59
2023-06-30T00:25:51.612Z,100614.19
2023-06-30T00:28:19.814Z,100615.44
2023-06-30T00:30:47.769Z,100606.50
2023-06-30T00:33:15.696Z,100610.13
2023-06-30T00:35:45.277Z,100611.50
2023-06-30T00:38:13.496Z,100594.81
2023-06-30T00:40:41.384Z,100607.31
2023-06-30T00:43:10.308Z,100598.09
2023-06-30T00:45:38.190Z,100613.44
2023-06-30T00:48:07.029Z,100597.34
2023-06-30T00:50:35.290Z,100603.88
2023-06-30T00:53:05.776Z,100603.25
2023-06-30T00:55:34.326Z,100600.44
2023-06-30T00:58:02.430Z,100592.91
2023-06-30T01:00:30.358Z,100597.91
2023-06-30T01:03:03.995Z,100596.72
2023-06-30T01:05:38.528Z,100594.41
2023-06-30T01:08:14.345Z,100590.97
2023-06-30T01:10:43.872Z,100609.53
2023-06-30T01:13:12.204Z,100604.13
2023-06-30T01:15:44.495Z,100597.53
2023-06-30T01:18:13.870Z,100605.56
2023-06-30T01:20:42.366Z,100599.19
2023-06-30T01:23:14.429Z,100602.91
2023-06-30T01:25:42.904Z,100591.09
2023-06-30T01:28:12.881Z,100590.09
2023-06-30T01:30:40.849Z,100588.91
2023-06-30T01:33:09.002Z,100586.22
2023-06-30T01:35:37.067Z,100591.41
2023-06-30T01:38:05.053Z,100588.50
2023-06-30T01:40:34.605Z,100585.66
2023-06-30T01:43:02.655Z,100587.75
2023-06-30T01:45:31.141Z,100583.19
2023-06-30T01:47:59.459Z,100578.63
2023-06-30T01:50:30.723Z,100581.53
2023-06-30T01:52:58.702Z,100590.69
2023-06-30T01:55:26.893Z,100587.16
2023-06-30T01:57:56.151Z,100591.50
2023-06-30T02:00:24.149Z,100589.84
2023-06-30T02:02:52.108Z,100589.84
2023-06-30T02:05:20.096Z,100578.19
2023-06-30T02:07:48.000Z,100578.19
2023-06-30T02:10:15.980Z,100581.72
2023-06-30T02:12:45.537Z,100584.63
2023-06-30T02:15:14.887Z,100592.09
2023-06-30T02:17:42.886Z,100585.06
2023-06-30T02:20:12.203Z,100581.09
2023-06-30T02:22:40.245Z,100571.25
2023-06-30T02:25:08.779Z,100586.31
2023-06-30T02:27:36.708Z,100582.16
2023-06-30T02:30:06.764Z,100577.19
2023-06-30T02:32:39.718Z,100581.78
2023-06-30T02:35:09.014Z,100578.63
2023-06-30T02:37:37.936Z,100585.69
2023-06-30T02:40:07.150Z,100579.47
2023-06-30T02:42:35.139Z,100581.97
2023-06-30T02:45:05.008Z,100583.84
2023-06-30T02:47:33.768Z,100581.13
2023-06-30T02:50:03.888Z,100576.59
2023-06-30T02:52:34.271Z,100576.16
2023-06-30T02:55:03.443Z,100571.59
2023-06-30T02:57:32.312Z,100573.25
2023-06-30T03:00:00.621Z,100571.16
2023-06-30T03:02:28.808Z,100567.00
2023-06-30T03:04:57.870Z,100566.63
2023-06-30T03:07:28.525Z,100564.09
2023-06-30T03:09:57.401Z,100560.34
2023-06-30T03:12:26.055Z,100563.28
2023-06-30T03:14:54.673Z,100562.66
2023-06-30T03:17:24.566Z,100564.09
2023-06-30T03:19:53.218Z,100565.47
2023-06-30T03:22:21.769Z,100570.25
2023-06-30T03:24:51.112Z,100554.94
2023-06-30T03:27:18.980Z,100551.16
2023-06-30T03:29:46.966Z,100549.72
2023-06-30T03:32:15.335Z,100550.72
2023-06-30T03:34:43.283Z,100549.06
2023-06-30T03:37:11.150Z,100542.94
2023-06-30T03:39:39.757Z,100538.72
2023-06-30T03:42:09.861Z,100543.03
2023-06-30T03:44:39.498Z,100550.88
2023-06-30T03:47:07.767Z,100546.09
2023-06-30T03:49:35.912Z,100551.44
2023-06-30T03:52:05.604Z,100548.16
2023-06-30T03:54:34.478Z,100549.00
2023-06-30T03:57:02.350Z,100542.63
2023-06-30T03:59:31.892Z,100543.38
2023-06-30T04:01:59.815Z,100547.72
2023-06-30T04:04:27.923Z,100547.63
2023-06-30T04:06:56.943Z,100545.31
2023-06-30T04:09:24.986Z,100541.91
2023-06-30T04:11:53.171Z,100543.66
2023-06-30T04:14:21.456Z,100543.66
2023-06-30T04:16:50.743Z,100545.47
2023-06-30T04:19:18.741Z,100537.97
2023-06-30T04:21:47.999Z,100541.88
2023-06-30T04:24:15.894Z,100545.03
2023-06-30T04:26:43.862Z,100541.03
2023-06-30T04:29:11.810Z,100549.38
2023-06-30T04:31:39.652Z,100545.22
2023-06-30T04:34:09.152Z,100547.72
2023-06-30T04:36:37.088Z,100534.22
2023-06-30T04:39:05.366Z,100530.09
2023-06-30T04:41:33.311Z,100520.13
2023-06-30T04:44:01.357Z,100511.03
2023-06-30T04:46:29.673Z,100515.22
2023-06-30T04:48:57.896Z,100516.94
2023-06-30T04:51:27.607Z,100509.03
2023-06-30T04:53:55.536Z,100506.44
2023-06-30T04:56:23.601Z,100500.38
2023-06-30T04:58:52.360Z,100504.16
2023-06-30T05:01:20.530Z,100521.19
2023-06-30T05:03:48.949Z,100508.72
2023-06-30T05:06:17.023Z,100511.88
2023-06-30T05:08:46.329Z,100517.44
2023-06-30T05:11:14.286Z,100513.59
2023-06-30T05:13:42.241Z,100512.09
2023-06-30T05:16:12.323Z,100505.25
2023-06-30T05:18:40.841Z,100513.75
2023-06-30T05:21:09.302Z,100495.94
2023-06-30T05:23:37.184Z,100489.25
2023-06-30T05:26:06.964Z,100490.81
2023-06-30T05:28:36.677Z,100493.94
2023-06-30T05:31:04.723Z,100493.78
2023-06-30T05:33:32.683Z,100499.81
2023-06-30T05:36:00.621Z,100501.59
2023-06-30T05:38:28.586Z,100504.47
2023-06-30T05:40:56.555Z,100509.09
2023-06-30T05:43:25.774Z,100496.16
2023-06-30T05:45:53.701Z,100493.78
2023-06-30T05:48:21.757Z,100507.94
2023-06-30T05:50:49.875Z,100506.16
2023-06-30T05:53:17.765Z,100510.25
2023-06-30T05:55:45.974Z,100501.56
2023-06-30T05:58:14.324Z,100501.31
2023-06-30T06:00:43.611Z,100502.03
2023-06-30T06:03:11.840Z,100496.25
2023-06-30T06:05:40.042Z,100507.31
2023-06-30T06:08:08.178Z,100507.06
2023-06-30T06:10:36.060Z,100504.66
2023-06-30T06:13:04.004Z,100509.94
2023-06-30T06:15:32.121Z,100510.44
2023-06-30T06:18:01.530Z,100503.19
2023-06-30T06:20:29.609Z,100501.84
2023-06-30T06:22:57.604Z,100502.41
2023-06-30T06:25:25.557Z,100507.25
2023-06-30T06:27:53.420Z,100510.28
2023-06-30T06:30:21.344Z,100510.38
2023-06-30T06:32:49.307Z,100510.16
2023-06-30T06:35:18.962Z,100517.34
2023-06-30T06:37:46.853Z,100522.38
2023-06-30T06:40:14.751Z,100521.06
2023-06-30T06:42:42.725Z,100512.69
2023-06-30T06:45:11.197Z,100517.78
2023-06-30T06:48:19.474Z,100512.78
2023-06-30T06:50:48.914Z,100519.09
2023-06-30T06:53:20.198Z,100513.19
2023-06-30T06:55:49.180Z,100525.38
2023-06-30T06:58:17.174Z,100523.22
2023-06-30T07:00:46.236Z,100520.53
2023-06-30T07:03:14.180Z,100528.06
2023-06-30T07:05:42.433Z,100531.00
2023-06-30T07:08:11.905Z,100527.94
2023-06-30T07:10:39.936Z,100526.03
2023-06-30T07:13:08.226Z,100520.03
2023-06-30T07:15:36.519Z,100521.59
2023-06-30T07:18:05.009Z,100530.06
2023-06-30T07:20:33.136Z,100534.41
2023-06-30T07:23:01.139Z,100527.66
2023-06-30T07:25:30.496Z,100532.25
2023-06-30T07:27:59.299Z,100533.13
2023-06-30T07:30:28.105Z,100541.78
2023-06-30T07:32:56.452Z,100530.53
2023-06-30T07:35:25.139Z,100527.78
2023-06-30T07:37:53.168Z,100524.41
2023-06-30T07:40:23.985Z,100512.16
2023-06-30T07:42:54.512Z,100513.91
2023-06-30T07:45:22.606Z,100515.22
2023-06-30T07:47:50.611Z,100513.47
2023-06-30T07:50:18.564Z,100511.44
2023-06-30T07:52:49.006Z,100510.97
2023-06-30T07:55:18.117Z,100513.56
2023-06-30T07:57:46.405Z,100520.88
2023-06-30T08:00:19.242Z,100530.16
2023-06-30T08:02:48.274Z,100525.19
2023-06-30T08:05:16.508Z,100525.56
2023-06-30T08:07:48.959Z,100533.09
2023-06-30T08:10:18.960Z,100538.78
2023-06-30T08:12:46.968Z,100539.72
2023-06-30T08:15:16.366Z,100538.06
2023-06-30T08:17:51.335Z,100538.28
2023-06-30T08:20:23.830Z,100535.13
2023-06-30T08:22:52.041Z,100534.75
2023-06-30T08:25:21.868Z,100531.47
2023-06-30T08:27:49.832Z,100531.72
2023-06-30T08:30:22.061Z,100526.31
2023-06-30T08:32:52.634Z,100522.03
2023-06-30T08:35:20.632Z,100529.38
2023-06-30T08:37:52.018Z,100521.81
2023-06-30T08:40:22.174Z,100528.38
2023-06-30T08:42:52.399Z,100519.78
2023-06-30T08:45:25.068Z,100525.69
2023-06-30T08:47:53.455Z,100531.75
2023-06-30T08:50:22.834Z,100536.69
2023-06-30T08:52:51.020Z,100534.06
2023-06-30T08:55:19.043Z,100531.84
2023-06-30T08:57:47.264Z,100535.19
2023-06-30T09:00:16.280Z,100533.56
2023-06-30T09:02:46.016Z,100538.66
2023-06-30T09:05:14.333Z,100533.84
2023-06-30T09:07:47.738Z,100535.50
2023-06-30T09:10:16.233Z,100540.38
2023-06-30T09:12:47.537Z,100550.72
2023-06-30T09:15:16.935Z,100547.06
2023-06-30T09:17:46.277Z,100532.00
2023-06-30T09:20:15.308Z,100537.91
2023-06-30T09:22:55.175Z,100533.34
2023-06-30T09:25:39.410Z,100531.16
2023-06-30T09:28:11.132Z,100532.53
2023-06-30T09:30:41.740Z,100528.88
2023-06-30T09:33:11.052Z,100531.81
2023-06-30T09:35:39.866Z,100524.94
2023-06-30T09:38:12.197Z,100522.22
2023-06-30T09:40:40.614Z,100511.41
2023-06-30T09:43:09.108Z,100516.34
2023-06-30T09:45:37.249Z,100516.31
2023-06-30T09:48:07.944Z,100521.88
2023-06-30T09:50:37.763Z,100517.91
2023-06-30T09:53:06.675Z,100524.31
2023-06-30T09:55:34.594Z,100516.31
2023-06-30T09:58:02.561Z,100513.78
2023-06-30T10:00:36.366Z,100519.47
2023-06-30T10:03:06.356Z,100523.41
2023-06-30T10:05:34.460Z,100522.13
2023-06-30T10:08:03.929Z,100524.06
2023-06-30T10:10:31.930Z,100517.84
2023-06-30T10:13:00.683Z,100530.13
2023-06-30T10:15:28.857Z,100532.25
2023-06-30T10:17:56.927Z,100524.34
2023-06-30T10:20:38.090Z,100530.13
2023-06-30T10:23:14.256Z,100533.97
2023-06-30T10:25:42.481Z,100529.78
2023-06-30T10:28:10.635Z,100530.44
2023-06-30T10:30:39.454Z,100525.00
2023-06-30T10:33:07.712Z,100531.78
2023-06-30T10:35:36.841Z,100526.38
2023-06-30T10:38:04.973Z,100522.19
2023-06-30T10:40:34.372Z,100523.31
2023-06-30T10:43:02.296Z,100523.34
2023-06-30T10:45:31.720Z,100525.47
2023-06-30T10:47:59.838Z,100523.78
2023-06-30T10:50:27.741Z,100529.19
2023-06-30T10:52:56.376Z,100526.19
2023-06-30T10:55:24.950Z,100526.25
2023-06-30T10:57:55.854Z,100531.81
2023-06-30T11:00:25.801Z,100520.03
2023-06-30T11:02:58.408Z,100524.19
2023-06-30T11:05:27.620Z,100527.47
2023-06-30T11:07:56.563Z,100523.69
2023-06-30T11:10:28.854Z,100522.84
2023-06-30T11:12:58.795Z,100528.84
2023-06-30T11:15:37.295Z,100524.72
2023-06-30T11:18:07.341Z,100523.22
2023-06-30T11:20:35.426Z,100517.88
2023-06-30T11:23:04.866Z,100511.50
2023-06-30T11:25:33.975Z,100513.69
2023-06-30T11:28:05.736Z,100521.88
2023-06-30T11:30:38.197Z,100513.28
2023-06-30T11:33:07.312Z,100511.44
2023-06-30T11:35:36.537Z,100509.84
2023-06-30T11:38:04.973Z,100523.19
2023-06-30T11:40:32.900Z,100532.97
2023-06-30T11:43:04.105Z,100529.56
2023-06-30T11:45:32.057Z,100535.84
2023-06-30T11:48:00.040Z,100538.75
2023-06-30T11:50:31.358Z,100538.13
2023-06-30T11:53:00.104Z,100532.28
2023-06-30T11:55:29.176Z,100525.09
2023-06-30T11:57:57.340Z,100511.78
2023-06-30T12:00:27.130Z,100516.91
2023-06-30T12:02:59.755Z,100519.56
2023-06-30T12:05:28.912Z,100528.25
2023-06-30T12:07:58.271Z,100533.66
2023-06-30T12:10:39.541Z,100536.00
2023-06-30T12:13:08.684Z,100525.94
2023-06-30T12:15:42.513Z,100528.25
2023-06-30T12:18:10.656Z,100524.72
2023-06-30T12:20:41.890Z,100511.78
2023-06-30T12:23:09.952Z,100511.38
2023-06-30T12:25:38.296Z,100517.06
2023-06-30T12:28:06.583Z,100518.84
2023-06-30T12:30:35.458Z,100511.34
2023-06-30T12:33:05.153Z,100516.44
2023-06-30T12:35:35.654Z,100516.63
2023-06-30T12:38:05.629Z,100516.22
2023-06-30T12:40:33.594Z,100524.25
2023-06-30T12:43:01.603Z,100528.09
2023-06-30T12:45:29.569Z,100530.47
2023-06-30T12:47:57.531Z,100530.03
2023-06-30T12:50:26.788Z,100529.88
2023-06-30T12:52:54.697Z,100530.09
2023-06-30T12:55:23.036Z,100522.84
2023-06-30T12:57:51.035Z,100516.72
2023-06-30T13:00:19.621Z,100521.63
2023-06-30T13:02:47.526Z,100517.31
2023-06-30T13:05:15.633Z,100507.03
2023-06-30T13:07:45.576Z,100512.81
2023-06-30T13:10:14.735Z,100514.91
2023-06-30T13:12:42.728Z,100520.09
2023-06-30T13:15:11.140Z,100512.28
2023-06-30T13:17:39.132Z,100522.22
2023-06-30T13:20:09.053Z,100525.44
2023-06-30T13:22:42.717Z,100534.69
2023-06-30T13:25:20.578Z,100532.72
2023-06-30T13:27:48.595Z,100539.72
2023-06-30T13:30:16.568Z,100540.19
2023-06-30T13:32:45.032Z,100547.72
2023-06-30T13:35:13.011Z,100544.19
2023-06-30T13:37:40.988Z,100547.66
2023-06-30T13:40:10.152Z,100530.44
2023-06-30T13:42:39.403Z,100538.88
2023-06-30T13:45:10.976Z,100537.84
2023-06-30T13:47:39.285Z,100524.84
2023-06-30T13:50:08.410Z,100516.16
2023-06-30T13:52:36.276Z,100522.28
2023-06-30T13:55:04.417Z,100529.31
2023-06-30T13:57:32.392Z,100524.03
2023-06-30T14:00:01.981Z,100528.38
2023-06-30T14:02:33.627Z,100513.59
2023-06-30T14:05:01.707Z,100518.34
2023-06-30T14:07:29.880Z,100532.13
2023-06-30T14:09:59.331Z,100516.84
2023-06-30T14:12:27.282Z,100529.41
2023-06-30T14:14:55.162Z,100523.41
2023-06-30T14:17:24.814Z,100534.69
2023-06-30T14:19:52.671Z,100520.41
2023-06-30T14:22:20.706Z,100515.13
2023-06-30T14:24:48.788Z,100507.50
2023-06-30T14:27:16.803Z,100504.97
2023-06-30T14:29:44.866Z,100510.22
2023-06-30T14:32:12.860Z,100509.31
2023-06-30T14:34:43.190Z,100510.97
2023-06-30T14:37:11.153Z,100508.94
2023-06-30T14:39:39.096Z,100509.78
2023-06-30T14:42:11.145Z,100506.47
2023-06-30T14:44:44.230Z,100502.94
2023-06-30T14:47:12.072Z,100501.94
2023-06-30T14:49:39.964Z,100505.06
2023-06-30T14:52:09.469Z,100498.69
2023-06-30T14:54:37.550Z,100494.47
2023-06-30T14:57:05.727Z,100495.16
2023-06-30T14:59:33.726Z,100500.78
2023-06-30T15:02:01.678Z,100499.34
2023-06-30T15:04:29.618Z,100497.78
2023-06-30T15:06:57.594Z,100491.06
2023-06-30T15:09:26.871Z,100491.56
2023-06-30T15:11:54.748Z,100501.56
2023-06-30T15:14:22.676Z,100501.13
2023-06-30T15:16:50.619Z,100505.88
2023-06-30T15:19:18.588Z,100501.63
2023-06-30T15:21:46.530Z,100512.84
2023-06-30T15:24:14.462Z,100508.84
2023-06-30T15:26:44.416Z,100502.03
2023-06-30T15:29:12.299Z,100506.38
2023-06-30T15:31:40.806Z,100503.63
2023-06-30T15:34:09.053Z,100509.63
2023-06-30T15:36:36.918Z,100512.16
2023-06-30T15:39:05.303Z,100504.19
2023-06-30T15:41:33.216Z,100509.59
2023-06-30T15:44:02.484Z,100515.00
2023-06-30T15:46:30.674Z,100521.13
2023-06-30T15:48:58.680Z,100519.53
2023-06-30T15:51:26.671Z,100516.72
2023-06-30T15:53:54.656Z,100507.59
2023-06-30T15:56:22.929Z,100515.31
2023-06-30T15:58:50.864Z,100514.88
2023-06-30T16:01:20.209Z,100514.28
2023-06-30T16:03:48.195Z,100522.31
2023-06-30T16:06:16.141Z,100513.06
2023-06-30T16:08:44.069Z,100511.25
2023-06-30T16:11:13.275Z,100518.25
2023-06-30T16:13:41.124Z,100513.41
2023-06-30T16:16:09.136Z,100523.78
2023-06-30T16:18:38.571Z,100525.03
2023-06-30T16:21:06.403Z,100521.50
2023-06-30T16:23:34.541Z,100527.56
2023-06-30T16:26:02.497Z,100521.09
2023-06-30T16:28:30.413Z,100526.41
2023-06-30T16:30:58.425Z,100523.50
2023-06-30T16:33:26.466Z,100525.84
2023-06-30T16:35:55.856Z,100522.75
2023-06-30T16:38:23.754Z,100525.28
2023-06-30T16:40:51.643Z,100520.06
2023-06-30T16:43:19.554Z,100524.69
2023-06-30T16:45:48.360Z,100516.22
2023-06-30T16:48:16.395Z,100513.09
2023-06-30T16:50:44.316Z,100503.25
2023-06-30T16:53:13.570Z,100499.91
2023-06-30T16:55:41.641Z,100501.72
2023-06-30T16:58:09.582Z,100510.06
2023-06-30T17:00:37.534Z,100502.25
2023-06-30T17:03:05.537Z,100498.50
2023-06-30T17:05:33.545Z,100502.03
2023-06-30T17:08:01.406Z,100500.06
2023-06-30T17:10:31.357Z,100490.03
2023-06-30T17:12:59.946Z,100491.25
2023-06-30T17:15:28.261Z,100493.22
2023-06-30T17:17:56.259Z,100491.06
2023-06-30T17:20:24.124Z,100496.63
2023-06-30T17:22:52.085Z,100502.25
2023-06-30T17:25:20.018Z,100506.47
2023-06-30T17:27:49.321Z,100507.94
2023-06-30T17:30:17.368Z,100505.81
2023-06-30T17:32:45.310Z,100492.78
2023-06-30T17:35:13.334Z,100497.88
2023-06-30T17:37:41.232Z,100496.31
2023-06-30T17:40:09.983Z,100497.59
2023-06-30T17:42:37.916Z,100484.75
2023-06-30T17:45:08.412Z,100487.50
2023-06-30T17:47:36.418Z,100483.75
2023-06-30T17:50:04.469Z,100482.88
2023-06-30T17:52:32.603Z,100486.78
2023-06-30T17:55:00.533Z,100489.09
2023-06-30T17:57:28.652Z,100489.94
2023-06-30T17:59:56.640Z,100496.94
2023-06-30T18:02:26.025Z,100484.44
2023-06-30T18:04:54.281Z,100492.53
2023-06-30T18:07:22.395Z,100489.38
2023-06-30T18:09:50.459Z,100497.69
2023-06-30T18:12:18.321Z,100496.88
2023-06-30T18:14:46.226Z,100502.34
2023-06-30T18:17:16.114Z,100495.88
2023-06-30T18:19:45.369Z,100496.66
2023-06-30T18:22:14.417Z,100503.78
2023-06-30T18:24:42.407Z,100502.34
2023-06-30T18:27:10.368Z,100505.28
2023-06-30T18:29:40.309Z,100509.44
2023-06-30T18:32:09.029Z,100511.09
2023-06-30T18:34:37.035Z,100516.31
2023-06-30T18:37:08.575Z,100507.69
2023-06-30T18:39:36.669Z,100506.63
2023-06-30T18:42:04.972Z,100509.34
2023-06-30T18:44:32.895Z,100510.59
2023-06-30T18:47:01.740Z,100510.59
2023-06-30T18:49:29.613Z,100515.16
2023-06-30T18:51:57.552Z,100512.25
2023-06-30T18:54:26.828Z,100516.81
2023-06-30T18:56:54.704Z,100513.53
2023-06-30T18:59:23.669Z,100507.97
2023-06-30T19:01:51.856Z,100513.75
2023-06-30T19:04:20.046Z,100518.94
2023-06-30T19:06:48.610Z,100521.94
2023-06-30T19:09:17.610Z,100525.72
2023-06-30T19:11:46.953Z,100533.59
2023-06-30T19:14:15.130Z,100526.16
2023-06-30T19:16:43.021Z,100528.88
2023-06-30T19:19:10.991Z,100532.38
2023-06-30T19:21:38.972Z,100535.09
2023-06-30T19:24:07.579Z,100536.50
2023-06-30T19:26:35.815Z,100534.47
2023-06-30T19:29:05.516Z,100530.75
2023-06-30T19:31:33.543Z,100533.44
2023-06-30T19:34:01.412Z,100531.34
2023-06-30T19:36:32.720Z,100533.69
2023-06-30T19:39:00.781Z,100537.00
2023-06-30T19:41:28.833Z,100535.94
2023-06-30T19:43:56.821Z,100531.19
2023-06-30T19:46:27.958Z,100529.75
2023-06-30T19:48:55.974Z,100536.78
2023-06-30T19:51:23.972Z,100523.31
2023-06-30T19:53:51.880Z,100527.47
2023-06-30T19:56:19.965Z,100524.56
2023-06-30T19:58:47.986Z,100524.16
2023-06-30T20:01:18.097Z,100518.13
2023-06-30T20:03:47.763Z,100512.13
2023-06-30T20:06:15.788Z,100507.16
2023-06-30T20:08:43.777Z,100502.81
2023-06-30T20:11:13.155Z,100510.47
2023-06-30T20:13:41.719Z,100513.16
2023-06-30T20:16:10.414Z,100511.53
2023-06-30T20:18:38.486Z,100512.13
2023-06-30T20:21:07.779Z,100517.50
2023-06-30T20:23:35.678Z,100516.50
2023-06-30T20:26:03.673Z,100517.53
2023-06-30T20:28:31.609Z,100516.88
2023-06-30T20:30:59.817Z,100519.19
2023-06-30T20:33:27.922Z,100520.00
2023-06-30T20:35:56.907Z,100521.47
2023-06-30T20:38:26.365Z,100521.03
2023-06-30T20:40:54.348Z,100525.81
2023-06-30T20:43:22.317Z,100517.50
2023-06-30T20:45:50.269Z,100517.50
2023-06-30T20:48:18.148Z,100508.63
2023-06-30T20:50:46.242Z,100507.16
2023-06-30T20:53:14.402Z,100502.19
2023-06-30T20:55:43.668Z,100504.69
2023-06-30T20:58:11.581Z,100510.88
2023-06-30T21:00:39.510Z,100511.72
2023-06-30T21:03:07.573Z,100500.31
2023-06-30T21:05:35.563Z,100506.53
2023-06-30T21:08:03.518Z,100504.47
2023-06-30T21:10:31.491Z,100509.41
2023-06-30T21:13:01.927Z,100516.66
2023-06-30T21:15:29.967Z,100519.19
2023-06-30T21:17:57.959Z,100516.69
2023-06-30T21:20:25.936Z,100511.94
2023-06-30T21:22:53.771Z,100511.75
2023-06-30T21:25:21.851Z,100508.19
2023-06-30T21:27:49.840Z,100504.28
2023-06-30T21:30:19.305Z,100507.78
2023-06-30T21:32:47.901Z,100513.75
2023-06-30T21:35:15.893Z,100505.06
2023-06-30T21:37:43.723Z,100505.06
2023-06-30T21:40:13.922Z,100496.78
2023-06-30T21:42:41.882Z,100500.53
2023-06-30T21:45:10.376Z,100493.06
2023-06-30T21:47:39.675Z,100497.00
2023-06-30T21:50:08.754Z,100495.16
2023-06-30T21:52:36.739Z,100504.25
2023-06-30T21:55:05.062Z,100506.13
2023-06-30T21:57:32.958Z,100500.94
2023-06-30T22:00:00.871Z,100503.25
2023-06-30T22:02:28.941Z,100497.66
2023-06-30T22:04:58.677Z,100494.75
2023-06-30T22:07:26.636Z,100503.84
2023-06-30T22:09:54.684Z,100496.00
2023-06-30T22:12:22.616Z,100498.06
2023-06-30T22:14:50.564Z,100488.34
2023-06-30T22:17:18.463Z,100486.88
2023-06-30T22:19:46.353Z,100486.44
2023-06-30T22:22:15.744Z,100497.44
2023-06-30T22:24:43.701Z,100489.56
2023-06-30T22:27:11.667Z,100491.03
2023-06-30T22:29:39.614Z,100489.56
2023-06-30T22:32:08.308Z,100486.47
2023-06-30T22:34:36.229Z,100483.78
2023-06-30T22:37:04.417Z,100484.19
2023-06-30T22:39:33.755Z,100482.75
2023-06-30T22:42:01.800Z,100481.31
2023-06-30T22:44:29.974Z,100475.72
2023-06-30T22:46:58.004Z,100473.66
2023-06-30T22:49:25.980Z,100472.19
2023-06-30T22:51:54.143Z,100472.44
2023-06-30T22:54:22.057Z,100466.81
2023-06-30T22:56:51.333Z,100469.50
2023-06-30T22:59:19.316Z,100467.66
2023-06-30T23:01:47.218Z,100459.16
2023-06-30T23:04:15.310Z,100462.47
2023-06-30T23:06:43.265Z,100464.16
2023-06-30T23:09:11.224Z,100461.03
2023-06-30T23:11:39.206Z,100450.69
2023-06-30T23:14:08.475Z,100456.28
2023-06-30T23:16:39.265Z,100448.41
2023-06-30T23:19:08.121Z,100449.66
2023-06-30T23:21:37.008Z,100445.09
2023-06-30T23:24:10.438Z,100451.72
2023-06-30T23:26:38.855Z,100444.84
2023-06-30T23:29:09.633Z,100451.50
2023-06-30T23:31:39.451Z,100443.00
2023-06-30T23:34:07.578Z,100449.84
2023-06-30T23:36:36.062Z,100450.06
2023-06-30T23:39:04.290Z,100443.00
2023-06-30T23:41:33.781Z,100439.91
2023-06-30T23:44:02.361Z,100447.78
2023-06-30T23:46:31.873Z,100442.63
2023-06-30T23:49:00.081Z,100444.47
2023-06-30T23:51:28.082Z,100445.72
2023-06-30T23:53:55.993Z,100441.19
2023-06-30T23:56:23.899Z,100439.31
2023-06-30T23:58:51.800Z,100441.78
